sensor_id;sensor_type;location;lat;lon;timestamp;pressure;altitude;pressure_sealevel;temperature;humidity
73671;BME280;61968;48.178;11.566;2023-02-28T00:00:22;96201.91;;;-1.25;36.12
73671;BME280;61968;48.178;11.566;2023-02-28T00:02:50;96197.75;;;-1.18;36.33
73671;BME280;61968;48.178;11.566;2023-02-28T00:05:18;96198.25;;;-1.32;35.86
73671;BME280;61968;48.178;11.566;2023-02-28T00:07:46;96200.66;;;-1.21;36.57
73671;BME280;61968;48.178;11.566;2023-02-28T00:10:15;96190.88;;;-1.09;36.24
73671;BME280;61968;48.178;11.566;2023-02-28T00:12:44;96196.38;;;-1.12;35.92
73671;BME280;61968;48.178;11.566;2023-02-28T00:15:11;96195.47;;;-1.21;35.88
73671;BME280;61968;48.178;11.566;2023-02-28T00:17:37;96189.16;;;-1.18;36.15
73671;BME280;61968;48.178;11.566;2023-02-28T00:20:07;96189.59;;;-1.23;36.50
73671;BME280;61968;48.178;11.566;2023-02-28T00:22:36;96191.53;;;-1.25;36.46
73671;BME280;61968;48.178;11.566;2023-02-28T00:25:03;96187.69;;;-1.21;36.07
73671;BME280;61968;48.178;11.566;2023-02-28T00:27:30;96188.78;;;-1.23;36.49
73671;BME280;61968;48.178;11.566;2023-02-28T00:29:56;96178.00;;;-1.29;35.98
73671;BME280;61968;48.178;11.566;2023-02-28T00:32:23;96180.47;;;-1.27;36.52
73671;BME280;61968;48.178;11.566;2023-02-28T00:34:49;96177.06;;;-1.28;36.33
73671;BME280;61968;48.178;11.566;2023-02-28T00:37:17;96182.56;;;-1.40;36.63
73671;BME280;61968;48.178;11.566;2023-02-28T00:39:44;96183.69;;;-1.43;36.84
73671;BME280;61968;48.178;11.566;2023-02-28T00:42:10;96178.00;;;-1.29;36.32
73671;BME280;61968;48.178;11.566;2023-02-28T00:44:37;96176.28;;;-1.38;36.62
73671;BME280;61968;48.178;11.566;2023-02-28T00:47:04;96179.72;;;-1.37;36.53
73671;BME280;61968;48.178;11.566;2023-02-28T00:49:30;96176.28;;;-1.38;36.37
73671;BME280;61968;48.178;11.566;2023-02-28T00:51:57;96180.91;;;-1.32;36.44
73671;BME280;61968;48.178;11.566;2023-02-28T00:54:25;96183.28;;;-1.20;36.16
73671;BME280;61968;48.178;11.566;2023-02-28T00:56:52;96187.00;;;-1.23;36.49
73671;BME280;61968;48.178;11.566;2023-02-28T00:59:18;96176.53;;;-1.31;36.72
73671;BME280;61968;48.178;11.566;2023-02-28T01:01:46;96182.69;;;-1.32;36.63
73671;BME280;61968;48.178;11.566;2023-02-28T01:04:12;96176.84;;;-1.34;36.76
73671;BME280;61968;48.178;11.566;2023-02-28T01:06:39;96182.03;;;-1.34;36.69
73671;BME280;61968;48.178;11.566;2023-02-28T01:09:07;96184.84;;;-1.28;36.35
73671;BME280;61968;48.178;11.566;2023-02-28T01:11:35;96180.09;;;-1.32;36.48
73671;BME280;61968;48.178;11.566;2023-02-28T01:14:02;96175.88;;;-1.33;36.64
73671;BME280;61968;48.178;11.566;2023-02-28T01:16:29;96170.97;;;-1.36;36.61
73671;BME280;61968;48.178;11.566;2023-02-28T01:18:56;96177.53;;;-1.42;36.66
73671;BME280;61968;48.178;11.566;2023-02-28T01:21:23;96170.84;;;-1.44;36.76
73671;BME280;61968;48.178;11.566;2023-02-28T01:23:51;96161.63;;;-1.57;36.88
73671;BME280;61968;48.178;11.566;2023-02-28T01:26:19;96161.94;;;-1.60;37.30
73671;BME280;61968;48.178;11.566;2023-02-28T01:28:47;96166.78;;;-1.47;37.18
73671;BME280;61968;48.178;11.566;2023-02-28T01:31:15;96164.34;;;-1.49;36.67
73671;BME280;61968;48.178;11.566;2023-02-28T01:33:43;96164.41;;;-1.40;36.49
73671;BME280;61968;48.178;11.566;2023-02-28T01:36:13;96160.03;;;-1.58;36.61
73671;BME280;61968;48.178;11.566;2023-02-28T01:38:40;96158.34;;;-1.49;36.62
73671;BME280;61968;48.178;11.566;2023-02-28T01:41:07;96151.94;;;-1.55;37.05
73671;BME280;61968;48.178;11.566;2023-02-28T01:43:57;96156.03;;;-1.52;36.71
73671;BME280;61968;48.178;11.566;2023-02-28T01:46:24;96152.56;;;-1.43;37.07
73671;BME280;61968;48.178;11.566;2023-02-28T01:48:54;96156.38;;;-1.37;36.62
73671;BME280;61968;48.178;11.566;2023-02-28T01:51:24;96153.69;;;-1.45;37.18
73671;BME280;61968;48.178;11.566;2023-02-28T01:53:56;96151.84;;;-1.63;36.89
73671;BME280;61968;48.178;11.566;2023-02-28T01:56:28;96157.13;;;-1.55;37.47
73671;BME280;61968;48.178;11.566;2023-02-28T01:58:56;96153.47;;;-1.62;37.42
73671;BME280;61968;48.178;11.566;2023-02-28T02:01:24;96152.25;;;-1.58;37.36
73671;BME280;61968;48.178;11.566;2023-02-28T02:03:54;96153.16;;;-1.49;37.27
73671;BME280;61968;48.178;11.566;2023-02-28T02:06:21;96142.84;;;-1.41;36.76
73671;BME280;61968;48.178;11.566;2023-02-28T02:08:48;96145.84;;;-1.63;37.53
73671;BME280;61968;48.178;11.566;2023-02-28T02:11:17;96145.09;;;-1.74;37.44
73671;BME280;61968;48.178;11.566;2023-02-28T02:16:45;96152.38;;;-1.59;37.78
73671;BME280;61968;48.178;11.566;2023-02-28T02:19:35;96148.38;;;-1.54;37.05
73671;BME280;61968;48.178;11.566;2023-02-28T02:22:21;96147.69;;;-1.56;37.73
73671;BME280;61968;48.178;11.566;2023-02-28T02:25:18;96146.59;;;-1.53;37.41
73671;BME280;61968;48.178;11.566;2023-02-28T02:28:02;96142.97;;;-1.60;37.11
73671;BME280;61968;48.178;11.566;2023-02-28T02:30:44;96139.69;;;-1.62;37.60
73671;BME280;61968;48.178;11.566;2023-02-28T02:33:27;96135.75;;;-1.66;37.96
73671;BME280;61968;48.178;11.566;2023-02-28T02:36:02;96141.41;;;-1.53;37.11
73671;BME280;61968;48.178;11.566;2023-02-28T02:38:34;96143.88;;;-1.52;37.35
73671;BME280;61968;48.178;11.566;2023-02-28T02:41:08;96136.28;;;-1.63;37.39
73671;BME280;61968;48.178;11.566;2023-02-28T02:43:41;96131.69;;;-1.69;37.68
73671;BME280;61968;48.178;11.566;2023-02-28T02:46:14;96131.16;;;-1.73;37.74
73671;BME280;61968;48.178;11.566;2023-02-28T02:48:43;96126.38;;;-1.77;38.07
73671;BME280;61968;48.178;11.566;2023-02-28T02:51:14;96124.81;;;-1.88;37.91
73671;BME280;61968;48.178;11.566;2023-02-28T02:53:46;96123.25;;;-1.81;37.86
73671;BME280;61968;48.178;11.566;2023-02-28T02:56:15;96131.84;;;-1.70;37.72
73671;BME280;61968;48.178;11.566;2023-02-28T02:58:45;96125.44;;;-1.76;37.81
73671;BME280;61968;48.178;11.566;2023-02-28T03:01:16;96121.81;;;-1.93;38.36
73671;BME280;61968;48.178;11.566;2023-02-28T03:03:53;96121.69;;;-1.91;38.27
73671;BME280;61968;48.178;11.566;2023-02-28T03:06:22;96128.59;;;-1.82;37.86
73671;BME280;61968;48.178;11.566;2023-02-28T03:08:48;96121.69;;;-1.91;38.82
73671;BME280;61968;48.178;11.566;2023-02-28T03:11:15;96127.41;;;-1.88;38.15
73671;BME280;61968;48.178;11.566;2023-02-28T03:13:50;96119.75;;;-1.89;38.15
73671;BME280;61968;48.178;11.566;2023-02-28T03:16:36;96122.66;;;-2.02;38.82
73671;BME280;61968;48.178;11.566;2023-02-28T03:19:26;96125.38;;;-1.94;39.03
73671;BME280;61968;48.178;11.566;2023-02-28T03:22:10;96124.06;;;-1.80;38.53
73671;BME280;61968;48.178;11.566;2023-02-28T03:24:43;96131.78;;;-1.88;38.88
73671;BME280;61968;48.178;11.566;2023-02-28T03:27:17;96132.81;;;-1.81;38.83
73671;BME280;61968;48.178;11.566;2023-02-28T03:29:48;96129.25;;;-1.80;38.95
73671;BME280;61968;48.178;11.566;2023-02-28T03:32:23;96135.69;;;-1.84;38.98
73671;BME280;61968;48.178;11.566;2023-02-28T03:34:54;96135.00;;;-1.77;38.49
73671;BME280;61968;48.178;11.566;2023-02-28T03:37:25;96134.31;;;-1.79;39.00
73671;BME280;61968;48.178;11.566;2023-02-28T03:39:56;96138.25;;;-1.75;38.88
73671;BME280;61968;48.178;11.566;2023-02-28T03:42:28;96129.66;;;-1.75;38.48
73671;BME280;61968;48.178;11.566;2023-02-28T03:44:57;96135.00;;;-1.86;39.18
73671;BME280;61968;48.178;11.566;2023-02-28T03:47:28;96135.00;;;-1.86;38.98
73671;BME280;61968;48.178;11.566;2023-02-28T03:50:02;96137.72;;;-1.78;38.29
73671;BME280;61968;48.178;11.566;2023-02-28T03:52:38;96138.41;;;-1.86;38.90
73671;BME280;61968;48.178;11.566;2023-02-28T03:55:11;96139.53;;;-1.88;39.38
73671;BME280;61968;48.178;11.566;2023-02-28T03:57:42;96137.25;;;-2.01;39.65
73671;BME280;61968;48.178;11.566;2023-02-28T04:00:13;96130.31;;;-2.01;39.70
73671;BME280;61968;48.178;11.566;2023-02-28T04:02:42;96140.63;;;-1.91;39.45
73671;BME280;61968;48.178;11.566;2023-02-28T04:05:08;96140.41;;;-1.98;39.39
73671;BME280;61968;48.178;11.566;2023-02-28T04:07:37;96140.63;;;-1.91;39.82
73671;BME280;61968;48.178;11.566;2023-02-28T04:10:05;96148.41;;;-1.91;39.57
73671;BME280;61968;48.178;11.566;2023-02-28T04:12:31;96150.59;;;-1.96;38.92
73671;BME280;61968;48.178;11.566;2023-02-28T04:14:58;96151.28;;;-1.94;39.28
73671;BME280;61968;48.178;11.566;2023-02-28T04:17:24;96163.13;;;-1.82;39.08
73671;BME280;61968;48.178;11.566;2023-02-28T04:19:51;96160.38;;;-1.80;39.17
73671;BME280;61968;48.178;11.566;2023-02-28T04:22:17;96162.03;;;-1.79;39.32
73671;BME280;61968;48.178;11.566;2023-02-28T04:24:45;96162.59;;;-1.85;38.94
73671;BME280;61968;48.178;11.566;2023-02-28T04:27:12;96165.03;;;-1.84;38.99
73671;BME280;61968;48.178;11.566;2023-02-28T04:29:41;96162.47;;;-1.93;39.34
73671;BME280;61968;48.178;11.566;2023-02-28T04:32:10;96173.31;;;-1.80;39.70
73671;BME280;61968;48.178;11.566;2023-02-28T04:34:36;96169.63;;;-1.78;39.26
73671;BME280;61968;48.178;11.566;2023-02-28T04:37:04;96176.03;;;-1.72;39.62
73671;BME280;61968;48.178;11.566;2023-02-28T04:39:35;96174.13;;;-1.80;39.62
73671;BME280;61968;48.178;11.566;2023-02-28T04:42:03;96175.25;;;-1.82;39.57
73671;BME280;61968;48.178;11.566;2023-02-28T04:44:29;96171.00;;;-1.74;39.34
73671;BME280;61968;48.178;11.566;2023-02-28T04:46:55;96171.38;;;-1.68;39.63
73671;BME280;61968;48.178;11.566;2023-02-28T04:49:22;96172.31;;;-1.60;39.41
73671;BME280;61968;48.178;11.566;2023-02-28T04:51:48;96169.13;;;-1.54;39.08
73671;BME280;61968;48.178;11.566;2023-02-28T04:54:15;96170.88;;;0.25;70.75
73671;BME280;61968;48.178;11.566;2023-02-28T04:56:43;96169.28;;;2.07;48.25
73671;BME280;61968;48.178;11.566;2023-02-28T04:59:11;96171.00;;;2.39;43.24
73671;BME280;61968;48.178;11.566;2023-02-28T05:01:37;96172.53;;;2.64;42.28
73671;BME280;61968;48.178;11.566;2023-02-28T05:04:04;96166.13;;;3.06;39.62
73671;BME280;61968;48.178;11.566;2023-02-28T05:06:32;96179.56;;;3.58;34.83
73671;BME280;61968;48.178;11.566;2023-02-28T05:08:59;96177.75;;;2.73;33.29
73671;BME280;61968;48.178;11.566;2023-02-28T05:11:27;96183.16;;;1.83;33.83
73671;BME280;61968;48.178;11.566;2023-02-28T05:13:58;96185.13;;;0.89;34.98
73671;BME280;61968;48.178;11.566;2023-02-28T05:16:26;96186.56;;;0.41;35.70
73671;BME280;61968;48.178;11.566;2023-02-28T05:18:53;96187.88;;;0.11;36.67
73671;BME280;61968;48.178;11.566;2023-02-28T05:21:25;96191.06;;;0.05;36.81
73671;BME280;61968;48.178;11.566;2023-02-28T05:23:54;96180.47;;;-0.02;37.19
73671;BME280;61968;48.178;11.566;2023-02-28T05:26:21;96194.19;;;-0.36;37.11
73671;BME280;61968;48.178;11.566;2023-02-28T05:28:48;96192.28;;;-0.51;37.66
73671;BME280;61968;48.178;11.566;2023-02-28T05:31:15;96196.28;;;-0.57;37.94
73671;BME280;61968;48.178;11.566;2023-02-28T05:33:42;96189.69;;;-0.69;38.52
73671;BME280;61968;48.178;11.566;2023-02-28T05:36:09;96188.97;;;-0.79;38.25
73671;BME280;61968;48.178;11.566;2023-02-28T05:38:36;96191.84;;;-0.83;38.56
73671;BME280;61968;48.178;11.566;2023-02-28T05:41:05;96187.28;;;-0.98;38.84
73671;BME280;61968;48.178;11.566;2023-02-28T05:43:32;96186.41;;;-0.89;38.38
73671;BME280;61968;48.178;11.566;2023-02-28T05:45:58;96189.53;;;-1.04;38.62
73671;BME280;61968;48.178;11.566;2023-02-28T05:48:25;96188.25;;;-0.99;38.80
73671;BME280;61968;48.178;11.566;2023-02-28T05:50:53;96190.94;;;-0.91;38.39
73671;BME280;61968;48.178;11.566;2023-02-28T05:53:19;96187.31;;;-1.08;39.29
73671;BME280;61968;48.178;11.566;2023-02-28T05:55:46;96188.59;;;-1.12;39.19
73671;BME280;61968;48.178;11.566;2023-02-28T05:58:13;96202.78;;;-1.34;39.20
73671;BME280;61968;48.178;11.566;2023-02-28T06:00:39;96203.59;;;-1.34;39.44
73671;BME280;61968;48.178;11.566;2023-02-28T06:03:06;96207.97;;;-1.34;38.91
73671;BME280;61968;48.178;11.566;2023-02-28T06:05:32;96203.00;;;-1.28;39.29
73671;BME280;61968;48.178;11.566;2023-02-28T06:08:00;96204.28;;;-1.41;39.48
73671;BME280;61968;48.178;11.566;2023-02-28T06:10:27;96206.38;;;-1.45;40.20
73671;BME280;61968;48.178;11.566;2023-02-28T06:12:53;96208.25;;;-1.37;39.10
73671;BME280;61968;48.178;11.566;2023-02-28T06:15:19;96214.19;;;-1.27;39.18
73671;BME280;61968;48.178;11.566;2023-02-28T06:17:46;96210.84;;;-1.37;39.42
73671;BME280;61968;48.178;11.566;2023-02-28T06:20:13;96214.63;;;-1.32;39.33
73671;BME280;61968;48.178;11.566;2023-02-28T06:22:39;96217.78;;;-1.28;39.60
73671;BME280;61968;48.178;11.566;2023-02-28T06:25:09;96221.13;;;-1.45;39.06
73671;BME280;61968;48.178;11.566;2023-02-28T06:27:36;96220.94;;;-1.34;39.42
73671;BME280;61968;48.178;11.566;2023-02-28T06:30:03;96228.50;;;-0.32;56.07
73671;BME280;61968;48.178;11.566;2023-02-28T06:32:29;96226.66;;;2.15;35.59
73671;BME280;61968;48.178;11.566;2023-02-28T06:34:56;96226.06;;;1.13;38.51
73671;BME280;61968;48.178;11.566;2023-02-28T06:37:23;96218.34;;;0.53;35.86
73671;BME280;61968;48.178;11.566;2023-02-28T06:39:51;96222.69;;;0.18;36.95
73671;BME280;61968;48.178;11.566;2023-02-28T06:42:19;96219.94;;;-0.06;37.57
73671;BME280;61968;48.178;11.566;2023-02-28T06:44:47;96235.03;;;-0.28;38.30
73671;BME280;61968;48.178;11.566;2023-02-28T06:47:13;96228.75;;;-0.43;37.73
73671;BME280;61968;48.178;11.566;2023-02-28T06:49:40;96238.38;;;-0.53;37.94
73671;BME280;61968;48.178;11.566;2023-02-28T06:52:06;96238.44;;;-0.63;37.72
73671;BME280;61968;48.178;11.566;2023-02-28T06:54:34;96238.50;;;-0.73;38.09
73671;BME280;61968;48.178;11.566;2023-02-28T06:57:00;96243.31;;;-0.78;38.30
73671;BME280;61968;48.178;11.566;2023-02-28T06:59:28;96241.66;;;-0.97;38.53
73671;BME280;61968;48.178;11.566;2023-02-28T07:01:54;96257.38;;;-0.98;38.71
73671;BME280;61968;48.178;11.566;2023-02-28T07:04:21;96260.66;;;-0.96;38.43
73671;BME280;61968;48.178;11.566;2023-02-28T07:06:48;96259.72;;;-1.05;38.35
73671;BME280;61968;48.178;11.566;2023-02-28T07:09:14;96260.66;;;-0.96;38.45
73671;BME280;61968;48.178;11.566;2023-02-28T07:11:41;96256.72;;;-1.00;38.68
73671;BME280;61968;48.178;11.566;2023-02-28T07:14:08;96262.13;;;-0.94;38.14
73671;BME280;61968;48.178;11.566;2023-02-28T07:16:36;96267.03;;;-0.91;38.03
73671;BME280;61968;48.178;11.566;2023-02-28T07:19:02;96263.25;;;-0.96;38.06
73671;BME280;61968;48.178;11.566;2023-02-28T07:21:28;96257.41;;;-1.08;38.19
73671;BME280;61968;48.178;11.566;2023-02-28T07:23:55;96260.16;;;-1.19;38.83
73671;BME280;61968;48.178;11.566;2023-02-28T07:26:22;96253.72;;;-1.06;38.47
73671;BME280;61968;48.178;11.566;2023-02-28T07:28:49;96255.38;;;-1.14;38.82
73671;BME280;61968;48.178;11.566;2023-02-28T07:31:16;96258.91;;;-1.06;38.38
73671;BME280;61968;48.178;11.566;2023-02-28T07:33:44;96261.66;;;-1.17;39.05
73671;BME280;61968;48.178;11.566;2023-02-28T07:36:13;96263.03;;;-1.13;39.09
73671;BME280;61968;48.178;11.566;2023-02-28T07:38:41;96269.97;;;-1.13;38.59
73671;BME280;61968;48.178;11.566;2023-02-28T07:41:09;96271.41;;;-1.19;39.03
73671;BME280;61968;48.178;11.566;2023-02-28T07:43:35;96262.94;;;-1.21;38.92
73671;BME280;61968;48.178;11.566;2023-02-28T07:46:03;96261.88;;;-1.28;39.21
73671;BME280;61968;48.178;11.566;2023-02-28T07:48:29;96261.81;;;-1.18;38.64
73671;BME280;61968;48.178;11.566;2023-02-28T07:50:58;96262.00;;;-1.30;39.16
73671;BME280;61968;48.178;11.566;2023-02-28T07:53:25;96267.34;;;-1.41;39.29
73671;BME280;61968;48.178;11.566;2023-02-28T07:55:54;96271.16;;;-1.35;38.95
73671;BME280;61968;48.178;11.566;2023-02-28T07:58:21;96265.31;;;-1.37;38.84
73671;BME280;61968;48.178;11.566;2023-02-28T08:00:47;96256.41;;;-1.25;38.68
73671;BME280;61968;48.178;11.566;2023-02-28T08:03:17;96256.47;;;-1.44;39.44
73671;BME280;61968;48.178;11.566;2023-02-28T08:05:45;96264.75;;;-1.31;39.29
73671;BME280;61968;48.178;11.566;2023-02-28T08:08:13;96259.66;;;-1.23;39.09
73671;BME280;61968;48.178;11.566;2023-02-28T08:10:40;96270.72;;;-1.21;38.64
73671;BME280;61968;48.178;11.566;2023-02-28T08:13:06;96267.38;;;-1.13;39.04
73671;BME280;61968;48.178;11.566;2023-02-28T08:15:33;96268.75;;;-1.09;38.81
73671;BME280;61968;48.178;11.566;2023-02-28T08:17:59;96277.09;;;-1.06;38.70
73671;BME280;61968;48.178;11.566;2023-02-28T08:20:26;96276.28;;;-1.06;38.38
73671;BME280;61968;48.178;11.566;2023-02-28T08:22:53;96274.63;;;-1.07;38.45
73671;BME280;61968;48.178;11.566;2023-02-28T08:25:21;96278.59;;;-1.03;38.33
73671;BME280;61968;48.178;11.566;2023-02-28T08:27:50;96298.53;;;-1.13;38.41
73671;BME280;61968;48.178;11.566;2023-02-28T08:30:17;96289.94;;;-1.14;38.21
73671;BME280;61968;48.178;11.566;2023-02-28T08:32:43;96290.94;;;-1.24;38.49
73671;BME280;61968;48.178;11.566;2023-02-28T08:35:10;96285.03;;;-1.17;38.24
73671;BME280;61968;48.178;11.566;2023-02-28T08:37:36;96288.75;;;-1.29;38.77
73671;BME280;61968;48.178;11.566;2023-02-28T08:40:03;96293.28;;;-1.31;38.71
73671;BME280;61968;48.178;11.566;2023-02-28T08:42:31;96298.84;;;-1.26;39.28
73671;BME280;61968;48.178;11.566;2023-02-28T08:44:58;96297.78;;;-1.33;38.99
73671;BME280;61968;48.178;11.566;2023-02-28T08:47:24;96298.97;;;-1.18;38.87
73671;BME280;61968;48.178;11.566;2023-02-28T08:49:51;96306.88;;;-1.10;38.54
73671;BME280;61968;48.178;11.566;2023-02-28T08:52:18;96301.69;;;-1.19;39.08
73671;BME280;61968;48.178;11.566;2023-02-28T08:54:44;96309.09;;;-1.24;39.51
73671;BME280;61968;48.178;11.566;2023-02-28T08:57:10;96308.66;;;-1.20;39.26
73671;BME280;61968;48.178;11.566;2023-02-28T08:59:38;96311.56;;;-1.33;38.85
73671;BME280;61968;48.178;11.566;2023-02-28T09:02:05;96305.13;;;-1.19;39.15
73671;BME280;61968;48.178;11.566;2023-02-28T09:04:33;96308.00;;;-1.22;39.17
73671;BME280;61968;48.178;11.566;2023-02-28T09:06:59;96306.88;;;-1.19;39.06
73671;BME280;61968;48.178;11.566;2023-02-28T09:09:26;96305.63;;;-1.06;38.17
73671;BME280;61968;48.178;11.566;2023-02-28T09:11:55;96310.84;;;-1.15;39.07
73671;BME280;61968;48.178;11.566;2023-02-28T09:14:21;96310.84;;;-1.15;39.08
73671;BME280;61968;48.178;11.566;2023-02-28T09:16:49;96310.81;;;-1.06;39.04
73671;BME280;61968;48.178;11.566;2023-02-28T09:19:15;96315.06;;;-1.05;39.07
73671;BME280;61968;48.178;11.566;2023-02-28T09:21:42;96317.00;;;-1.07;39.29
73671;BME280;61968;48.178;11.566;2023-02-28T09:24:09;96312.72;;;-1.08;38.75
73671;BME280;61968;48.178;11.566;2023-02-28T09:26:37;96316.38;;;-0.91;38.83
73671;BME280;61968;48.178;11.566;2023-02-28T09:29:03;96324.63;;;-1.15;38.80
73671;BME280;61968;48.178;11.566;2023-02-28T09:31:30;96324.50;;;-1.04;38.88
73671;BME280;61968;48.178;11.566;2023-02-28T09:33:58;96327.09;;;-1.04;38.67
73671;BME280;61968;48.178;11.566;2023-02-28T09:36:26;96332.38;;;-0.95;38.78
73671;BME280;61968;48.178;11.566;2023-02-28T09:38:53;96337.56;;;-0.95;38.57
73671;BME280;61968;48.178;11.566;2023-02-28T09:41:21;96337.56;;;-0.95;38.33
73671;BME280;61968;48.178;11.566;2023-02-28T09:43:52;96342.50;;;-1.02;38.39
73671;BME280;61968;48.178;11.566;2023-02-28T09:46:31;96339.63;;;-0.99;38.49
73671;BME280;61968;48.178;11.566;2023-02-28T09:49:03;96349.97;;;-0.89;38.41
73671;BME280;61968;48.178;11.566;2023-02-28T09:51:39;96345.44;;;-0.87;38.85
73671;BME280;61968;48.178;11.566;2023-02-28T09:54:08;96346.31;;;-0.96;38.63
73671;BME280;61968;48.178;11.566;2023-02-28T09:56:38;96355.06;;;-0.97;39.06
73671;BME280;61968;48.178;11.566;2023-02-28T09:59:11;96356.56;;;-1.05;38.85
73671;BME280;61968;48.178;11.566;2023-02-28T10:01:47;96357.91;;;-0.91;38.75
73671;BME280;61968;48.178;11.566;2023-02-28T10:04:38;96357.72;;;-0.79;38.41
73671;BME280;61968;48.178;11.566;2023-02-28T10:07:17;96354.97;;;-0.78;38.08
73671;BME280;61968;48.178;11.566;2023-02-28T10:09:50;96355.75;;;-0.68;37.63
73671;BME280;61968;48.178;11.566;2023-02-28T10:12:19;96353.53;;;-0.63;38.01
73671;BME280;61968;48.178;11.566;2023-02-28T10:14:48;96352.53;;;-0.79;38.24
73671;BME280;61968;48.178;11.566;2023-02-28T10:17:18;96348.63;;;-0.66;37.84
73671;BME280;61968;48.178;11.566;2023-02-28T10:19:55;96352.78;;;-0.73;38.01
73671;BME280;61968;48.178;11.566;2023-02-28T10:22:26;96358.50;;;-0.69;38.21
73671;BME280;61968;48.178;11.566;2023-02-28T10:24:55;96359.81;;;-0.65;38.09
73671;BME280;61968;48.178;11.566;2023-02-28T10:27:28;96363.09;;;-0.63;38.10
73671;BME280;61968;48.178;11.566;2023-02-28T10:29:57;96359.81;;;-0.55;37.77
73671;BME280;61968;48.178;11.566;2023-02-28T10:32:26;96361.78;;;-0.67;38.11
73671;BME280;61968;48.178;11.566;2023-02-28T10:34:57;96358.44;;;-0.60;37.79
73671;BME280;61968;48.178;11.566;2023-02-28T10:37:25;96359.06;;;-0.48;38.22
73671;BME280;61968;48.178;11.566;2023-02-28T10:39:52;96356.28;;;-0.37;38.00
73671;BME280;61968;48.178;11.566;2023-02-28T10:42:21;96363.47;;;-0.30;37.86
73671;BME280;61968;48.178;11.566;2023-02-28T10:45:04;96370.69;;;-0.24;37.64
73671;BME280;61968;48.178;11.566;2023-02-28T10:47:33;96372.94;;;-0.12;37.86
73671;BME280;61968;48.178;11.566;2023-02-28T10:50:03;96369.97;;;0.01;37.21
73671;BME280;61968;48.178;11.566;2023-02-28T10:52:36;96369.00;;;0.02;37.08
73671;BME280;61968;48.178;11.566;2023-02-28T10:55:18;96365.56;;;0.02;36.95
73671;BME280;61968;48.178;11.566;2023-02-28T10:57:45;96368.75;;;-0.04;37.29
73671;BME280;61968;48.178;11.566;2023-02-28T11:00:14;96373.44;;;-0.08;37.16
73671;BME280;61968;48.178;11.566;2023-02-28T11:02:41;96372.84;;;-0.02;37.20
73671;BME280;61968;48.178;11.566;2023-02-28T11:05:28;96375.44;;;-0.02;37.20
73671;BME280;61968;48.178;11.566;2023-02-28T11:07:56;96372.78;;;0.08;37.34
73671;BME280;61968;48.178;11.566;2023-02-28T11:10:25;96377.75;;;0.19;36.85
73671;BME280;61968;48.178;11.566;2023-02-28T11:12:55;96376.22;;;0.26;36.84
73671;BME280;61968;48.178;11.566;2023-02-28T11:15:24;96373.75;;;0.07;37.44
73671;BME280;61968;48.178;11.566;2023-02-28T11:17:56;96373.31;;;0.11;36.92
73671;BME280;61968;48.178;11.566;2023-02-28T11:20:26;96369.44;;;0.16;37.26
73671;BME280;61968;48.178;11.566;2023-02-28T11:22:54;96375.00;;;0.39;37.00
73671;BME280;61968;48.178;11.566;2023-02-28T11:25:24;96382.16;;;0.37;37.02
73671;BME280;61968;48.178;11.566;2023-02-28T11:27:56;96375.00;;;0.39;36.57
73671;BME280;61968;48.178;11.566;2023-02-28T11:30:37;96371.97;;;0.25;37.15
73671;BME280;61968;48.178;11.566;2023-02-28T11:33:23;96365.13;;;0.42;36.48
73671;BME280;61968;48.178;11.566;2023-02-28T11:35:52;96366.34;;;0.56;36.97
73671;BME280;61968;48.178;11.566;2023-02-28T11:38:21;96362.19;;;0.63;36.68
73671;BME280;61968;48.178;11.566;2023-02-28T11:40:49;96355.25;;;0.72;36.75
73671;BME280;61968;48.178;11.566;2023-02-28T11:43:30;96356.38;;;0.69;36.58
73671;BME280;61968;48.178;11.566;2023-02-28T11:46:09;96350.34;;;0.69;36.15
73671;BME280;61968;48.178;11.566;2023-02-28T11:48:46;96339.28;;;0.67;36.80
73671;BME280;61968;48.178;11.566;2023-02-28T11:51:22;96341.00;;;0.84;36.13
73671;BME280;61968;48.178;11.566;2023-02-28T11:54:04;96340.41;;;0.98;35.76
73671;BME280;61968;48.178;11.566;2023-02-28T11:56:38;96339.53;;;1.16;35.58
73671;BME280;61968;48.178;11.566;2023-02-28T11:59:22;96335.84;;;1.26;35.79
73671;BME280;61968;48.178;11.566;2023-02-28T12:02:18;96339.81;;;1.39;36.17
73671;BME280;61968;48.178;11.566;2023-02-28T12:04:53;96343.75;;;1.43;36.05
73671;BME280;61968;48.178;11.566;2023-02-28T12:07:32;96340.22;;;1.60;35.59
73671;BME280;61968;48.178;11.566;2023-02-28T12:10:12;96340.56;;;1.65;35.19
73671;BME280;61968;48.178;11.566;2023-02-28T12:12:55;96336.97;;;1.66;35.02
73671;BME280;61968;48.178;11.566;2023-02-28T12:18:43;96332.78;;;1.82;34.72
73671;BME280;61968;48.178;11.566;2023-02-28T12:21:22;96328.03;;;1.77;34.74
73671;BME280;61968;48.178;11.566;2023-02-28T12:24:18;96321.03;;;1.78;35.03
73671;BME280;61968;48.178;11.566;2023-02-28T12:26:49;96320.19;;;1.77;34.97
73671;BME280;61968;48.178;11.566;2023-02-28T12:29:19;96315.34;;;1.90;35.88
73671;BME280;61968;48.178;11.566;2023-02-28T12:31:52;96324.97;;;1.90;35.21
73671;BME280;61968;48.178;11.566;2023-02-28T12:34:24;96312.09;;;1.97;35.09
73671;BME280;61968;48.178;11.566;2023-02-28T12:36:53;96311.78;;;2.00;35.19
73671;BME280;61968;48.178;11.566;2023-02-28T12:39:27;96320.75;;;2.05;35.59
73671;BME280;61968;48.178;11.566;2023-02-28T12:41:59;96314.88;;;2.11;34.86
73671;BME280;61968;48.178;11.566;2023-02-28T12:44:33;96311.59;;;2.09;34.64
73671;BME280;61968;48.178;11.566;2023-02-28T12:47:02;96315.50;;;2.13;35.43
73671;BME280;61968;48.178;11.566;2023-02-28T12:49:31;96309.84;;;2.26;34.43
73671;BME280;61968;48.178;11.566;2023-02-28T12:52:00;96303.13;;;2.32;35.41
73671;BME280;61968;48.178;11.566;2023-02-28T12:54:32;96312.41;;;2.34;34.35
73671;BME280;61968;48.178;11.566;2023-02-28T12:57:07;96308.34;;;2.40;34.44
73671;BME280;61968;48.178;11.566;2023-02-28T12:59:39;96309.00;;;2.42;34.07
73671;BME280;61968;48.178;11.566;2023-02-28T13:02:33;96304.09;;;2.39;34.39
73671;BME280;61968;48.178;11.566;2023-02-28T13:05:33;96306.06;;;2.37;33.76
73671;BME280;61968;48.178;11.566;2023-02-28T13:10:57;96302.97;;;2.33;33.67
73671;BME280;61968;48.178;11.566;2023-02-28T13:13:25;96303.28;;;2.30;33.88
73671;BME280;61968;48.178;11.566;2023-02-28T13:16:00;96294.97;;;2.43;34.36